North Truro, Massachusetts
Current Conditions -  °F | °C
As of 8:35 AM on Friday 24 Oct 2014 (Local Time) from KPVC Reporting Station
Overcast Overcast  
Wind Chill: 50°   Ceiling: 600
Heat Index: 50°   Visibility: 1.7mi
Dew Point: -2°   Wind: 21mph
Humidity: 12%   Direction: 340°NNW
Pressure: 29.66"   Gusts: 30mph
Location:  42.03°N, 70.09°W
Report Text: KPVC 241235Z 34018G26KT 1 3/4SM OVC006 10/M19 A2966 RMK AO1
Loading
Personal Weather Stations






























Interactive Weather Map
Tropical Storm Tracking
New forecast layout! Learn more

10-Day Weather Forecast

Advertisements
Track Severe Weather on mobile